Time;durP1;ratioP1;P1;durP2;ratioP2;P2;SDS_P1;SDS_P2;PMS_P1;PMS_P2;Temp;Humidity;BMP_temperature;BMP_pressure;BME280_temperature;BME280_humidity;BME280_pressure;Samples;Min_cycle;Max_cycle;Signal;HPM_P1;HPM_P2
2023/12/29 00:02:05;;;;;;;9.65;3.17;;;;;;;;;;5046516;28;20056;-66
2023/12/29 00:04:32;;;;;;;9.57;2.80;;;;;;;;;;5015195;28;20089;-63
2023/12/29 00:06:57;;;;;;;10.93;3.13;;;14.50;95.10;;;;;;5014232;28;20050;-63
2023/12/29 00:09:23;;;;;;;10.00;3.00;;;14.50;95.10;;;;;;4994108;28;20062;-64
2023/12/29 00:11:50;;;;;;;10.40;3.20;;;14.50;93.80;;;;;;4994410;28;20133;-64
2023/12/29 00:14:16;;;;;;;9.93;2.72;;;;;;;;;;5024642;28;20407;-64
2023/12/29 00:16:43;;;;;;;9.30;3.17;;;14.50;95.10;;;;;;5014136;28;20369;-64
2023/12/29 00:19:10;;;;;;;7.78;2.53;;;;;;;;;;5012906;28;20053;-64
2023/12/29 00:21:36;;;;;;;12.10;2.88;;;14.50;95.20;;;;;;5015161;28;20037;-64
2023/12/29 00:24:02;;;;;;;7.53;2.35;;;14.50;95.10;;;;;;5046726;28;20054;-63
2023/12/29 00:26:28;;;;;;;9.88;2.95;;;14.50;95.20;;;;;;5014435;28;20057;-63
2023/12/29 00:28:54;;;;;;;10.82;2.95;;;14.40;94.50;;;;;;5013202;28;20093;-63
2023/12/29 00:31:20;;;;;;;11.55;3.40;;;;;;;;;;5013070;28;20598;-63
2023/12/29 00:33:46;;;;;;;10.73;2.72;;;14.40;95.10;;;;;;5046891;28;20037;-63
2023/12/29 00:36:19;;;;;;;8.73;2.58;;;14.60;94.20;;;;;;5046295;28;20053;-63
2023/12/29 00:38:45;;;;;;;11.68;3.17;;;;;;;;;;4996461;28;20099;-63
2023/12/29 00:41:11;;;;;;;10.32;3.03;;;;;;;;;;5046044;28;20157;-64
2023/12/29 00:43:37;;;;;;;11.20;2.75;;;14.50;95.20;;;;;;5013307;28;20053;-63
2023/12/29 00:46:04;;;;;;;8.10;2.55;;;14.50;95.20;;;;;;5014313;28;20408;-63
2023/12/29 00:48:30;;;;;;;8.50;2.42;;;;;;;;;;5012305;28;20057;-63
2023/12/29 00:50:56;;;;;;;9.63;3.03;;;;;;;;;;5045993;28;20137;-64
2023/12/29 00:53:22;;;;;;;11.25;3.15;;;14.50;95.30;;;;;;5012784;28;20042;-63
2023/12/29 00:55:48;;;;;;;9.35;2.53;;;14.50;95.30;;;;;;5013226;28;20045;-63
2023/12/29 00:58:14;;;;;;;9.85;2.40;;;;;;;;;;5014354;28;20488;-63
2023/12/29 01:00:40;;;;;;;9.00;2.80;;;14.50;95.30;;;;;;5045391;28;20388;-64
2023/12/29 01:03:06;;;;;;;9.38;2.83;;;;;;;;;;5013771;28;20054;-63
2023/12/29 01:05:31;;;;;;;9.75;3.00;;;14.40;94.40;;;;;;5014129;28;20038;-63
2023/12/29 01:07:57;;;;;;;8.00;2.58;;;14.50;95.30;;;;;;5045960;28;20046;-64
2023/12/29 01:10:23;;;;;;;10.75;2.72;;;;;;;;;;5045460;28;20107;-63
2023/12/29 01:12:49;;;;;;;8.13;2.45;;;14.50;95.30;;;;;;5012365;28;20048;-63
2023/12/29 01:15:15;;;;;;;11.35;2.75;;;14.60;95.40;;;;;;5013735;28;20050;-63
2023/12/29 01:17:41;;;;;;;8.10;2.88;;;14.40;95.40;;;;;;4996432;28;20182;-63
2023/12/29 01:20:07;;;;;;;9.20;2.88;;;;;;;;;;5013852;28;20050;-64
2023/12/29 01:22:33;;;;;;;8.57;2.88;;;14.40;95.40;;;;;;5013341;28;20132;-63
2023/12/29 01:25:00;;;;;;;9.98;2.92;;;14.50;95.40;;;;;;4995201;28;20571;-63
2023/12/29 01:27:26;;;;;;;8.50;2.53;;;;;;;;;;4996623;28;20377;-63
2023/12/29 01:29:52;;;;;;;7.60;2.60;;;;;;;;;;5029136;28;20396;-64
2023/12/29 01:32:19;;;;;;;11.07;2.90;;;14.40;95.30;;;;;;5045536;28;20046;-64
2023/12/29 01:34:44;;;;;;;7.38;2.05;;;14.40;95.30;;;;;;5045361;28;20392;-64
2023/12/29 01:37:10;;;;;;;6.88;2.30;;;14.40;94.60;;;;;;5045408;28;20051;-64
2023/12/29 01:39:36;;;;;;;8.02;2.58;;;14.40;94.80;;;;;;5045438;28;20396;-64
2023/12/29 01:42:02;;;;;;;7.80;2.65;;;;;;;;;;5013545;28;20050;-64
2023/12/29 01:44:28;;;;;;;8.68;3.05;;;;;;;;;;5044891;28;20094;-63
2023/12/29 01:46:55;;;;;;;7.30;2.20;;;;;;;;;;5011950;28;20049;-64
2023/12/29 01:49:21;;;;;;;8.73;2.33;;;14.40;95.30;;;;;;5044907;28;20065;-64
2023/12/29 01:51:55;;;;;;;6.72;2.42;;;14.40;94.20;;;;;;5028396;28;20550;-64
2023/12/29 01:54:20;;;;;;;10.70;3.08;;;14.40;95.30;;;;;;5010993;28;20050;-63
2023/12/29 01:56:47;;;;;;;9.48;2.65;;;14.40;95.30;;;;;;5045376;28;20124;-63
2023/12/29 01:59:14;;;;;;;9.48;2.63;;;;;;;;;;5011807;28;20064;-63
2023/12/29 02:01:39;;;;;;;8.88;3.05;;;14.40;95.30;;;;;;5012555;28;20073;-64
2023/12/29 02:04:06;;;;;;;8.52;3.00;;;14.50;95.40;;;;;;5028616;28;20046;-64
2023/12/29 02:06:33;;;;;;;6.95;2.65;;;14.50;95.40;;;;;;4995493;28;20119;-64
2023/12/29 02:09:00;;;;;;;7.93;2.85;;;;;;;;;;5028615;28;20097;-64
2023/12/29 02:11:25;;;;;;;8.95;3.10;;;14.30;95.40;;;;;;5012244;28;20052;-64
2023/12/29 02:13:51;;;;;;;6.53;2.35;;;14.30;95.40;;;;;;5013063;28;20038;-64
2023/12/29 02:16:19;;;;;;;9.82;2.70;;;;;;;;;;5027311;28;20496;-64
2023/12/29 02:18:45;;;;;;;7.90;2.28;;;14.30;95.40;;;;;;5044929;28;20053;-64
2023/12/29 02:21:11;;;;;;;7.70;2.05;;;14.30;95.30;;;;;;5028333;28;20057;-64
2023/12/29 02:23:37;;;;;;;5.80;2.10;;;14.30;95.30;;;;;;5044516;28;20095;-64
2023/12/29 02:26:07;;;;;;;6.35;1.75;;;14.30;95.30;;;;;;5043594;28;20054;-63
2023/12/29 02:28:32;;;;;;;4.72;1.58;;;14.30;95.30;;;;;;5027557;28;20060;-63
2023/12/29 02:31:16;;;;;;;4.63;1.60;;;14.20;93.50;;;;;;5010947;28;20042;-64
2023/12/29 02:33:42;;;;;;;9.85;1.92;;;14.30;95.20;;;;;;5026171;28;20092;-65
2023/12/29 02:36:08;;;;;;;6.38;1.52;;;;;;;;;;5043885;28;20399;-64
2023/12/29 02:38:34;;;;;;;4.28;1.30;;;14.30;95.10;;;;;;5044408;28;20126;-64
2023/12/29 02:41:00;;;;;;;5.55;1.65;;;;;;;;;;5027674;28;20194;-63
2023/12/29 02:43:26;;;;;;;5.50;1.67;;;;;;;;;;5011258;28;20131;-64
2023/12/29 02:45:52;;;;;;;5.88;1.60;;;14.30;95.00;;;;;;5043002;28;20415;-63
2023/12/29 02:48:18;;;;;;;5.20;1.63;;;;;;;;;;5044216;28;20100;-63
2023/12/29 02:50:44;;;;;;;6.78;1.70;;;;;;;;;;5012781;28;20042;-63
2023/12/29 02:53:10;;;;;;;6.68;1.65;;;;;;;;;;5044601;28;20133;-63
2023/12/29 02:55:37;;;;;;;6.70;2.10;;;;;;;;;;5012700;28;20132;-63
2023/12/29 03:01:43;;;;;;;6.28;1.95;;;14.20;94.90;;;;;;4992983;28;20396;-63
2023/12/29 03:04:09;;;;;;;7.82;2.35;;;14.20;94.80;;;;;;5007928;28;20058;-63
2023/12/29 03:06:35;;;;;;;8.40;2.25;;;14.20;93.80;;;;;;5024349;28;20123;-63
2023/12/29 03:09:00;;;;;;;7.60;2.13;;;14.20;94.30;;;;;;5044320;28;20045;-63
2023/12/29 03:11:27;;;;;;;7.00;2.22;;;;;;;;;;5015093;28;20105;-63
2023/12/29 03:13:53;;;;;;;6.97;2.03;;;;;;;;;;5016545;28;20053;-63
2023/12/29 03:16:18;;;;;;;9.15;2.20;;;14.20;94.80;;;;;;5014629;28;20053;-64
2023/12/29 03:18:44;;;;;;;6.68;1.98;;;14.20;94.80;;;;;;5048116;28;20484;-63
2023/12/29 03:21:10;;;;;;;7.15;2.30;;;;;;;;;;5016053;28;20050;-63
2023/12/29 03:23:36;;;;;;;9.75;2.63;;;14.20;94.80;;;;;;5015260;28;20042;-63
2023/12/29 03:26:02;;;;;;;7.75;2.35;;;;;;;;;;5047999;28;20095;-62
2023/12/29 03:28:28;;;;;;;7.38;2.35;;;;;;;;;;5015733;28;20042;-63
2023/12/29 03:30:54;;;;;;;7.18;2.20;;;;;;;;;;5047772;28;20045;-63
2023/12/29 03:33:21;;;;;;;8.35;2.30;;;;;;;;;;5047452;28;20049;-63
2023/12/29 03:35:47;;;;;;;9.30;2.40;;;;;;;;;;5047024;28;20053;-64
2023/12/29 03:38:14;;;;;;;8.02;2.65;;;14.30;93.60;;;;;;5030270;28;20053;-63
2023/12/29 03:40:40;;;;;;;7.88;2.45;;;14.10;94.80;;;;;;5030910;28;20058;-63
2023/12/29 03:43:06;;;;;;;8.20;2.30;;;14.20;94.80;;;;;;5047823;28;20046;-63
2023/12/29 03:45:31;;;;;;;8.55;2.75;;;14.30;94.80;;;;;;5015841;28;20047;-63
2023/12/29 03:47:57;;;;;;;7.45;2.35;;;14.20;94.80;;;;;;5046371;28;20053;-63
2023/12/29 03:50:23;;;;;;;9.63;2.60;;;;;;;;;;5014280;28;20061;-63
2023/12/29 03:52:49;;;;;;;8.88;2.60;;;14.20;94.90;;;;;;5015633;28;20046;-63
2023/12/29 03:55:15;;;;;;;11.82;2.75;;;14.20;94.90;;;;;;5015810;28;20050;-63
2023/12/29 03:57:42;;;;;;;11.63;2.95;;;14.20;93.80;;;;;;5046984;28;20050;-63
2023/12/29 04:00:12;;;;;;;9.00;2.70;;;14.20;93.80;;;;;;5013791;28;20057;-63
2023/12/29 04:02:38;;;;;;;9.20;2.80;;;;;;;;;;5014077;28;20081;-63
2023/12/29 04:05:08;;;;;;;10.23;3.28;;;14.20;95.00;;;;;;5015280;28;20558;-64
2023/12/29 04:07:34;;;;;;;8.48;2.78;;;;;;;;;;5046810;28;20060;-63
2023/12/29 04:10:00;;;;;;;10.55;3.15;;;;;;;;;;5015631;28;20364;-63
2023/12/29 04:12:26;;;;;;;9.45;3.10;;;14.20;95.00;;;;;;5014804;28;20045;-63
2023/12/29 04:14:52;;;;;;;11.02;3.28;;;;;;;;;;5015309;28;20046;-63
2023/12/29 04:17:17;;;;;;;9.80;3.40;;;14.10;95.00;;;;;;5014190;28;20443;-64
2023/12/29 04:19:43;;;;;;;9.45;3.15;;;14.20;95.10;;;;;;5046887;28;20062;-63
2023/12/29 04:22:09;;;;;;;9.20;3.25;;;;;;;;;;5028964;28;20487;-63
2023/12/29 04:24:37;;;;;;;9.35;3.05;;;14.20;95.00;;;;;;5014282;28;20495;-63
2023/12/29 04:27:03;;;;;;;11.75;3.70;;;14.20;93.80;;;;;;5013346;28;20042;-63
2023/12/29 04:29:30;;;;;;;12.23;3.45;;;;;;;;;;5014925;28;20510;-63
2023/12/29 04:31:56;;;;;;;10.77;3.55;;;;;;;;;;5013567;28;20112;-63
2023/12/29 04:34:22;;;;;;;11.00;3.10;;;;;;;;;;5013312;28;20052;-63
2023/12/29 04:36:48;;;;;;;10.63;3.35;;;;;;;;;;5046596;28;20053;-63
2023/12/29 04:39:14;;;;;;;11.73;3.53;;;;;;;;;;5045850;28;20061;-63
2023/12/29 04:41:40;;;;;;;13.23;4.22;;;;;;;;;;5046634;28;20045;-63
2023/12/29 04:44:06;;;;;;;11.98;3.78;;;;;;;;;;5014444;28;20609;-64
2023/12/29 04:46:32;;;;;;;12.95;3.80;;;;;;;;;;5014498;28;20095;-63
2023/12/29 04:48:59;;;;;;;14.15;3.80;;;14.20;95.10;;;;;;5012947;28;20132;-63
2023/12/29 04:51:25;;;;;;;12.82;3.97;;;14.20;95.00;;;;;;5045297;28;20476;-63
2023/12/29 04:53:51;;;;;;;12.52;4.10;;;;;;;;;;5014784;28;20128;-63
2023/12/29 04:56:17;;;;;;;11.52;3.90;;;14.20;95.10;;;;;;4996942;28;20044;-63
2023/12/29 04:58:42;;;;;;;11.93;3.67;;;14.20;95.00;;;;;;4996126;28;20046;-63
2023/12/29 05:01:08;;;;;;;12.55;3.92;;;14.10;95.00;;;;;;5046206;28;20042;-64
2023/12/29 05:03:34;;;;;;;10.77;3.63;;;14.20;95.10;;;;;;5013998;28;20042;-64
2023/12/29 05:06:00;;;;;;;12.82;4.20;;;14.20;95.10;;;;;;5014239;28;20081;-64
2023/12/29 05:08:26;;;;;;;14.25;4.05;;;;;;;;;;5045899;28;20115;-64
2023/12/29 05:10:52;;;;;;;12.63;4.00;;;;;;;;;;5045848;28;20518;-64
2023/12/29 05:13:18;;;;;;;13.25;4.88;;;;;;;;;;5029444;28;20092;-63
2023/12/29 05:15:44;;;;;;;11.25;4.00;;;14.20;95.10;;;;;;5045412;28;20041;-64
2023/12/29 05:18:10;;;;;;;14.73;4.00;;;14.30;95.10;;;;;;5013967;28;20418;-64
2023/12/29 05:20:36;;;;;;;13.13;3.70;;;14.20;95.10;;;;;;5012354;28;20038;-64
2023/12/29 05:23:02;;;;;;;17.33;4.18;;;14.20;95.00;;;;;;5028713;28;20093;-64
2023/12/29 05:25:28;;;;;;;15.75;4.22;;;14.10;95.10;;;;;;5013872;28;20046;-64
2023/12/29 05:27:55;;;;;;;14.15;4.55;;;;;;;;;;5013260;28;20376;-63
2023/12/29 05:30:20;;;;;;;12.13;3.72;;;14.20;95.00;;;;;;5012287;28;20050;-63
2023/12/29 05:32:46;;;;;;;14.23;3.97;;;14.20;95.00;;;;;;5012300;28;20053;-63
2023/12/29 05:35:12;;;;;;;13.77;3.58;;;;;;;;;;5012747;28;20129;-64
2023/12/29 05:37:38;;;;;;;16.20;4.43;;;14.20;95.00;;;;;;5013970;28;20400;-65
2023/12/29 05:40:04;;;;;;;15.07;4.38;;;14.30;95.00;;;;;;5012867;28;20038;-66
2023/12/29 05:42:30;;;;;;;11.70;3.70;;;14.30;95.10;;;;;;4996333;28;20088;-65
2023/12/29 05:44:56;;;;;;;17.23;3.95;;;14.30;94.30;;;;;;5013255;28;20081;-63
2023/12/29 05:47:22;;;;;;;15.60;4.13;;;14.30;95.10;;;;;;5045624;28;20096;-64
2023/12/29 05:49:47;;;;;;;14.60;4.68;;;14.30;95.10;;;;;;5044918;28;20042;-63
2023/12/29 05:52:13;;;;;;;14.23;4.45;;;;;;;;;;5013063;28;20054;-63
2023/12/29 05:54:39;;;;;;;17.73;4.65;;;;;;;;;;5013018;28;20045;-63
2023/12/29 05:57:06;;;;;;;12.68;4.28;;;;;;;;;;5013660;28;20061;-63
2023/12/29 05:59:31;;;;;;;13.45;4.28;;;14.10;95.00;;;;;;5044580;28;20044;-63
2023/12/29 06:01:57;;;;;;;14.05;4.68;;;14.30;95.10;;;;;;5013255;28;20128;-63
2023/12/29 06:04:23;;;;;;;15.27;4.65;;;;;;;;;;5013026;28;20053;-63
2023/12/29 06:06:49;;;;;;;14.63;4.68;;;;;;;;;;5044772;28;20054;-63
2023/12/29 06:09:15;;;;;;;14.13;4.43;;;;;;;;;;5044757;28;20046;-63
2023/12/29 06:11:41;;;;;;;14.98;4.15;;;14.20;95.00;;;;;;5013366;28;20042;-63
2023/12/29 06:14:07;;;;;;;15.90;4.55;;;14.20;95.00;;;;;;5045228;28;20466;-63
2023/12/29 06:16:33;;;;;;;14.88;4.22;;;14.20;95.00;;;;;;5044565;28;20559;-63
2023/12/29 06:19:00;;;;;;;13.68;4.03;;;;;;;;;;5044851;28;20065;-63
2023/12/29 06:21:26;;;;;;;13.88;4.28;;;;;;;;;;5013022;28;20395;-63
2023/12/29 06:23:51;;;;;;;16.02;4.88;;;14.20;95.00;;;;;;5012413;28;20082;-63
2023/12/29 06:26:18;;;;;;;15.73;4.90;;;14.20;95.00;;;;;;5013228;28;20459;-63
2023/12/29 06:28:47;;;;;;;16.15;4.43;;;14.40;93.90;;;;;;4995175;28;20050;-63
2023/12/29 06:31:13;;;;;;;14.45;4.00;;;14.10;94.90;;;;;;5010997;28;20073;-63
2023/12/29 06:33:45;;;;;;;10.85;3.80;;;;;;;;;;5011640;28;20042;-63
2023/12/29 06:36:11;;;;;;;15.90;4.20;;;14.20;94.90;;;;;;4995166;28;20049;-63
2023/12/29 06:38:37;;;;;;;16.42;4.20;;;14.20;94.90;;;;;;5011653;28;20045;-63
2023/12/29 06:41:03;;;;;;;20.02;4.95;;;14.20;93.40;;;;;;5012688;28;20072;-63
2023/12/29 06:43:29;;;;;;;18.38;4.88;;;14.20;94.90;;;;;;5012050;28;20073;-63
2023/12/29 06:45:56;;;;;;;14.60;4.47;;;;;;;;;;5015186;28;20069;-63
2023/12/29 06:48:22;;;;;;;16.88;4.30;;;;;;;;;;5017180;28;20045;-63
2023/12/29 06:50:48;;;;;;;13.52;4.15;;;14.20;94.90;;;;;;5048924;28;20069;-63
2023/12/29 06:53:13;;;;;;;12.23;4.10;;;14.10;94.90;;;;;;5016135;28;20051;-63
2023/12/29 06:55:39;;;;;;;13.35;4.50;;;14.20;94.90;;;;;;5015300;28;20049;-63
2023/12/29 06:58:05;;;;;;;15.90;3.92;;;14.10;94.90;;;;;;5031626;28;20439;-64
2023/12/29 07:00:31;;;;;;;14.30;4.07;;;;;;;;;;5031722;28;20064;-63
2023/12/29 07:02:57;;;;;;;15.32;4.03;;;;;;;;;;5015584;28;20042;-64
2023/12/29 07:05:23;;;;;;;13.90;3.80;;;14.20;94.90;;;;;;5031595;28;20400;-63
2023/12/29 07:07:52;;;;;;;15.38;4.10;;;14.20;94.90;;;;;;5047012;28;20413;-63
2023/12/29 07:10:18;;;;;;;12.65;3.95;;;14.20;94.90;;;;;;5016707;28;20057;-63
2023/12/29 07:12:43;;;;;;;13.55;4.07;;;14.20;94.90;;;;;;5015033;28;20046;-64
2023/12/29 07:15:10;;;;;;;10.95;3.53;;;14.10;94.90;;;;;;5014812;28;20049;-64
2023/12/29 07:17:35;;;;;;;14.65;3.85;;;14.20;94.90;;;;;;5015073;28;20072;-63
2023/12/29 07:20:01;;;;;;;19.45;5.13;;;;;;;;;;5015067;28;20050;-63
2023/12/29 07:22:28;;;;;;;13.38;4.20;;;;;;;;;;5014502;28;20066;-63
2023/12/29 07:24:53;;;;;;;13.73;3.65;;;14.00;94.90;;;;;;5016066;28;20097;-62
2023/12/29 07:27:19;;;;;;;12.95;3.67;;;14.10;94.90;;;;;;5014937;28;20077;-69
2023/12/29 07:29:45;;;;;;;12.23;4.03;;;14.20;94.90;;;;;;5013559;28;20407;-66
2023/12/29 07:32:11;;;;;;;16.23;4.32;;;14.10;94.90;;;;;;5031278;28;20129;-64
2023/12/29 07:34:37;;;;;;;12.40;3.63;;;14.30;94.90;;;;;;5015525;28;20096;-63
2023/12/29 07:37:03;;;;;;;15.75;4.63;;;14.20;93.80;;;;;;5015043;28;20049;-65
2023/12/29 07:39:29;;;;;;;13.98;3.83;;;;;;;;;;4981723;28;20400;-64
2023/12/29 07:41:55;;;;;;;14.38;3.83;;;;;;;;;;5014845;28;20078;-63
2023/12/29 07:44:21;;;;;;;14.95;3.47;;;14.30;94.80;;;;;;4998246;28;20053;-64
2023/12/29 07:46:47;;;;;;;13.80;4.20;;;;;;;;;;5015658;28;20042;-63
2023/12/29 07:49:13;;;;;;;16.00;4.03;;;;;;;;;;5015204;28;20125;-65
2023/12/29 07:51:40;;;;;;;13.02;4.10;;;14.40;93.60;;;;;;5014836;28;20050;-65
2023/12/29 07:54:07;;;;;;;13.13;4.38;;;14.40;94.80;;;;;;5014628;28;20057;-65
2023/12/29 07:56:33;;;;;;;11.32;4.03;;;;;;;;;;5014093;28;20518;-65
2023/12/29 07:58:59;;;;;;;13.23;4.30;;;;;;;;;;5030949;28;20132;-65
2023/12/29 08:01:26;;;;;;;16.77;4.63;;;;;;;;;;5013835;28;20045;-65
2023/12/29 08:03:53;;;;;;;14.65;4.15;;;;;;;;;;4998218;28;20427;-70
2023/12/29 08:06:19;;;;;;;14.88;4.63;;;;;;;;;;5013837;28;20064;-71
2023/12/29 08:08:45;;;;;;;15.57;3.92;;;;;;;;;;5030805;28;20056;-70
2023/12/29 08:11:17;;;;;;;12.73;4.35;;;14.50;93.50;;;;;;5047433;28;20440;-65
2023/12/29 08:13:44;;;;;;;15.00;4.70;;;;;;;;;;5015309;28;20129;-67
2023/12/29 08:16:10;;;;;;;14.57;4.20;;;14.50;94.70;;;;;;5015048;28;20281;-66
2023/12/29 08:18:36;;;;;;;16.00;4.47;;;;;;;;;;5030290;28;20050;-62
2023/12/29 08:21:02;;;;;;;13.77;4.38;;;14.40;94.70;;;;;;5014277;28;20543;-63
2023/12/29 08:23:28;;;;;;;15.82;4.78;;;14.50;94.20;;;;;;5012990;28;20137;-65
2023/12/29 08:25:57;;;;;;;16.67;4.43;;;14.40;93.50;;;;;;4997782;28;20062;-64
2023/12/29 08:28:23;;;;;;;14.50;4.55;;;14.50;94.70;;;;;;5015287;28;20081;-64
2023/12/29 08:30:48;;;;;;;19.80;4.95;;;14.40;94.70;;;;;;5012648;28;20080;-63
2023/12/29 08:33:14;;;;;;;15.25;3.88;;;;;;;;;;5012957;28;20050;-68
2023/12/29 08:35:41;;;;;;;15.05;4.13;;;14.40;93.30;;;;;;5013093;28;20140;-65
2023/12/29 08:38:07;;;;;;;16.50;5.22;;;;;;;;;;4996969;28;20042;-64
2023/12/29 08:40:33;;;;;;;13.25;4.38;;;;;;;;;;5045635;28;20049;-64
2023/12/29 08:43:01;;;;;;;13.23;4.28;;;14.50;94.60;;;;;;5018246;28;20117;-64
2023/12/29 08:45:27;;;;;;;16.00;5.03;;;;;;;;;;5019873;28;20412;-65
2023/12/29 08:47:54;;;;;;;15.70;4.28;;;;;;;;;;5009568;28;20049;-64
2023/12/29 08:50:20;;;;;;;16.92;5.22;;;14.50;94.70;;;;;;5028933;28;20518;-64
2023/12/29 08:52:46;;;;;;;13.38;4.32;;;;;;;;;;5045334;28;20065;-69
2023/12/29 08:55:12;;;;;;;14.73;4.55;;;;;;;;;;5014214;28;20057;-65
2023/12/29 08:57:38;;;;;;;15.77;4.18;;;14.40;94.60;;;;;;5013330;28;20049;-64
2023/12/29 09:00:04;;;;;;;16.13;4.93;;;14.50;94.60;;;;;;5028818;28;20140;-64
2023/12/29 09:02:31;;;;;;;12.63;4.25;;;;;;;;;;5013978;28;20053;-65
2023/12/29 09:04:57;;;;;;;16.73;4.22;;;;;;;;;;5012661;28;20049;-64
2023/12/29 09:07:23;;;;;;;18.20;4.85;;;;;;;;;;5013667;28;20042;-67
2023/12/29 09:09:49;;;;;;;20.30;4.18;;;;;;;;;;5029324;28;20046;-65
2023/12/29 09:12:15;;;;;;;17.90;4.35;;;14.40;94.60;;;;;;5044929;28;20118;-66
2023/12/29 09:14:41;;;;;;;18.80;5.00;;;;;;;;;;5028660;28;20037;-64
2023/12/29 09:17:07;;;;;;;15.68;4.18;;;;;;;;;;5012484;28;20511;-66
2023/12/29 09:19:33;;;;;;;26.50;4.95;;;14.60;94.60;;;;;;5012805;28;20061;-64
2023/12/29 09:21:59;;;;;;;18.55;4.30;;;;;;;;;;5012956;28;20045;-64
2023/12/29 09:24:25;;;;;;;19.05;4.80;;;14.50;94.60;;;;;;5013397;28;20054;-66
2023/12/29 09:26:52;;;;;;;17.48;5.30;;;14.60;94.60;;;;;;5012668;28;20045;-66
2023/12/29 09:29:18;;;;;;;16.33;4.20;;;14.50;94.60;;;;;;5012713;28;20052;-67
2023/12/29 09:31:43;;;;;;;18.15;4.22;;;14.50;94.50;;;;;;5013947;28;20399;-66
2023/12/29 09:34:09;;;;;;;16.88;4.88;;;14.60;94.60;;;;;;5011942;28;20125;-68
2023/12/29 09:36:36;;;;;;;16.58;4.40;;;14.50;94.50;;;;;;5013239;28;20053;-66
2023/12/29 09:39:02;;;;;;;16.02;4.22;;;14.60;94.60;;;;;;5045525;28;20399;-65
2023/12/29 09:41:28;;;;;;;14.88;4.00;;;14.60;94.50;;;;;;5045063;28;20112;-66
2023/12/29 09:43:54;;;;;;;17.30;4.75;;;14.60;94.50;;;;;;5011908;28;20120;-66
2023/12/29 09:46:21;;;;;;;15.20;4.72;;;14.60;94.50;;;;;;5012595;28;20045;-65
2023/12/29 09:48:48;;;;;;;16.00;4.30;;;14.60;94.50;;;;;;5012505;28;20042;-64
2023/12/29 09:51:17;;;;;;;16.20;4.45;;;14.70;94.30;;;;;;4991673;28;20107;-64
2023/12/29 09:53:43;;;;;;;14.25;4.22;;;;;;;;;;5011101;28;20399;-73
2023/12/29 09:56:10;;;;;;;15.85;4.32;;;;;;;;;;5011886;28;20046;-67
2023/12/29 09:58:37;;;;;;;15.60;4.25;;;14.60;94.30;;;;;;5011420;28;20049;-65
2023/12/29 10:01:06;;;;;;;15.18;4.60;;;14.70;92.60;;;;;;5011236;28;20060;-64
2023/12/29 10:03:33;;;;;;;15.73;3.92;;;14.60;94.30;;;;;;5012097;28;20046;-66
2023/12/29 10:06:00;;;;;;;13.35;3.80;;;;;;;;;;5011782;28;20124;-63
2023/12/29 10:08:27;;;;;;;18.48;4.25;;;14.80;94.40;;;;;;5012227;28;20431;-64
2023/12/29 10:10:53;;;;;;;13.63;4.00;;;;;;;;;;4994700;28;20507;-64
2023/12/29 10:13:19;;;;;;;13.32;4.50;;;14.70;94.40;;;;;;5027379;28;20048;-66
2023/12/29 10:15:54;;;;;;;12.90;4.75;;;;;;;;;;5043928;28;20375;-65
2023/12/29 10:18:38;;;;;;;14.02;3.90;;;14.60;93.30;;;;;;4995317;28;20100;-66
2023/12/29 10:21:33;;;;;;;14.90;4.25;;;14.80;92.80;;;;;;5010210;28;20049;-64
2023/12/29 10:24:03;;;;;;;18.15;4.95;;;;;;;;;;5010832;28;20061;-64
2023/12/29 10:26:29;;;;;;;14.60;4.40;;;;;;;;;;5043526;28;20144;-64
2023/12/29 10:28:55;;;;;;;14.35;4.55;;;;;;;;;;5011090;28;20407;-64
2023/12/29 10:31:22;;;;;;;13.63;3.80;;;14.80;94.40;;;;;;5027383;28;20566;-65
2023/12/29 10:33:51;;;;;;;24.45;5.30;;;14.70;94.40;;;;;;5026315;28;20058;-66
2023/12/29 10:36:16;;;;;;;21.38;5.32;;;14.70;94.40;;;;;;4994910;28;20041;-68
2023/12/29 10:38:42;;;;;;;24.58;5.07;;;14.80;94.40;;;;;;4992841;28;20064;-66
2023/12/29 10:41:18;;;;;;;22.92;5.50;;;14.80;92.80;;;;;;5027573;28;20042;-66
2023/12/29 10:43:47;;;;;;;28.48;5.90;;;14.80;94.50;;;;;;4994196;28;20500;-66
2023/12/29 10:46:13;;;;;;;22.98;5.47;;;;;;;;;;4994946;28;20068;-66
2023/12/29 10:48:39;;;;;;;28.17;5.32;;;;;;;;;;5025144;28;20092;-66
2023/12/29 10:51:05;;;;;;;26.80;5.55;;;;;;;;;;5023657;28;20042;-66
2023/12/29 10:53:32;;;;;;;21.98;4.80;;;;;;;;;;5024325;28;20111;-66
2023/12/29 10:55:58;;;;;;;24.20;5.10;;;14.60;93.00;;;;;;5004403;28;20053;-66
2023/12/29 10:58:27;;;;;;;29.27;5.82;;;14.50;94.30;;;;;;5009285;28;20046;-67
2023/12/29 11:00:54;;;;;;;26.92;5.47;;;14.60;93.20;;;;;;5010964;28;20411;-66
2023/12/29 11:03:20;;;;;;;21.17;5.15;;;;;;;;;;5044633;28;20082;-66
2023/12/29 11:05:46;;;;;;;23.85;5.07;;;;;;;;;;5011626;28;20049;-66
2023/12/29 11:08:19;;;;;;;16.73;4.20;;;14.60;92.70;;;;;;5012395;28;20119;-66
2023/12/29 11:10:45;;;;;;;21.70;5.03;;;14.70;94.40;;;;;;5044174;28;20069;-68
2023/12/29 11:13:14;;;;;;;44.15;5.90;;;;;;;;;;5025891;28;20054;-64
2023/12/29 11:15:45;;;;;;;23.27;4.90;;;14.70;93.40;;;;;;5043044;28;20133;-66
2023/12/29 11:18:12;;;;;;;20.55;4.82;;;;;;;;;;4994582;28;20115;-66
2023/12/29 11:20:38;;;;;;;42.35;6.53;;;;;;;;;;5026353;28;20041;-66
2023/12/29 11:23:07;;;;;;;43.03;6.22;;;14.60;94.40;;;;;;4993245;28;20061;-65
2023/12/29 11:25:33;;;;;;;79.57;10.43;;;14.80;94.40;;;;;;5026259;28;20062;-67
2023/12/29 11:27:59;;;;;;;87.13;10.48;;;14.80;94.40;;;;;;5027410;28;20046;-65
2023/12/29 11:30:25;;;;;;;107.10;11.88;;;14.80;94.40;;;;;;4994863;28;20092;-65
2023/12/29 11:32:59;;;;;;;99.05;11.02;;;14.80;94.30;;;;;;4987674;28;20400;-66
2023/12/29 11:35:30;;;;;;;86.30;9.35;;;14.90;94.30;;;;;;4963821;28;20053;-65
2023/12/29 11:38:12;;;;;;;85.22;9.18;;;14.80;93.10;;;;;;5011517;28;20054;-65
2023/12/29 11:41:05;;;;;;;58.42;8.93;;;14.90;93.10;;;;;;4995338;28;20054;-66
2023/12/29 11:43:31;;;;;;;58.38;7.82;;;15.10;94.10;;;;;;5006929;28;20064;-66
2023/12/29 11:45:57;;;;;;;59.13;7.30;;;15.00;94.10;;;;;;4994142;28;20474;-66
2023/12/29 11:48:57;;;;;;;51.38;7.32;;;15.10;92.50;;;;;;5028014;28;20046;-66
2023/12/29 11:51:43;;;;;;;51.10;7.32;;;;;;;;;;4996100;28;20050;-66
2023/12/29 11:54:08;;;;;;;39.17;5.90;;;15.00;94.00;;;;;;5011396;28;20415;-65
2023/12/29 11:56:40;;;;;;;34.83;5.68;;;15.10;92.60;;;;;;5030707;28;20136;-66
2023/12/29 11:59:14;;;;;;;40.53;6.70;;;15.30;94.00;;;;;;4982004;28;20042;-65
2023/12/29 12:01:40;;;;;;;39.60;6.50;;;;;;;;;;4998392;28;20096;-66
2023/12/29 12:04:41;;;;;;;35.58;6.03;;;15.20;92.90;;;;;;5028409;28;20503;-66
2023/12/29 12:07:07;;;;;;;27.15;4.80;;;15.30;93.90;;;;;;5015392;28;20136;-67
2023/12/29 12:09:34;;;;;;;28.17;5.50;;;15.30;92.30;;;;;;5030602;28;20041;-67
2023/12/29 12:12:03;;;;;;;29.27;4.78;;;15.30;92.70;;;;;;5030198;28;20060;-66
2023/12/29 12:14:49;;;;;;;23.50;5.05;;;15.60;92.20;;;;;;5013087;28;20076;-66
2023/12/29 12:17:33;;;;;;;22.58;4.60;;;15.70;92.20;;;;;;5046593;28;20058;-66
2023/12/29 12:20:03;;;;;;;21.27;4.43;;;15.40;92.80;;;;;;5009471;28;20057;-66
2023/12/29 12:22:30;;;;;;;19.15;3.83;;;15.50;93.60;;;;;;4995760;28;20792;-66
2023/12/29 12:25:00;;;;;;;13.30;3.85;;;15.40;93.50;;;;;;4996724;28;20101;-66
2023/12/29 12:27:27;;;;;;;12.65;3.53;;;15.80;93.60;;;;;;5013596;28;20108;-66
2023/12/29 12:29:56;;;;;;;15.73;3.42;;;15.50;93.50;;;;;;5030485;28;20097;-66
2023/12/29 12:32:22;;;;;;;14.75;3.65;;;15.50;93.40;;;;;;5012829;28;20041;-68
2023/12/29 12:34:48;;;;;;;14.45;3.20;;;;;;;;;;5006501;28;20049;-66
2023/12/29 12:37:19;;;;;;;14.52;3.78;;;15.60;93.40;;;;;;5023276;28;20073;-66
2023/12/29 12:39:45;;;;;;;15.23;3.42;;;;;;;;;;5007777;28;20050;-69
2023/12/29 12:42:11;;;;;;;12.23;3.03;;;15.60;93.30;;;;;;5003514;28;20053;-68
2023/12/29 12:44:41;;;;;;;9.60;3.03;;;15.70;92.40;;;;;;4978807;28;20053;-67
2023/12/29 12:47:10;;;;;;;15.70;3.17;;;;;;;;;;4978355;28;20042;-64
2023/12/29 12:49:36;;;;;;;14.38;3.28;;;15.40;93.30;;;;;;4993980;28;20451;-64
2023/12/29 12:52:02;;;;;;;128.32;13.60;;;15.40;93.40;;;;;;4977632;28;20089;-66
2023/12/29 12:54:28;;;;;;;104.20;9.82;;;15.40;93.40;;;;;;5026987;28;20047;-66
2023/12/29 12:56:54;;;;;;;217.27;18.73;;;15.50;93.40;;;;;;4999083;28;20044;-66
2023/12/29 12:59:20;;;;;;;339.85;28.10;;;;;;;;;;5013154;28;20058;-65
2023/12/29 13:01:46;;;;;;;176.60;16.20;;;;;;;;;;5046523;28;20402;-66
2023/12/29 13:04:12;;;;;;;186.35;15.23;;;15.40;93.40;;;;;;5045038;28;20480;-68
2023/12/29 13:06:41;;;;;;;159.65;14.65;;;15.40;93.50;;;;;;5029900;28;20196;-67
2023/12/29 13:09:11;;;;;;;149.45;15.43;;;15.50;93.30;;;;;;5045589;28;20403;-67
2023/12/29 13:11:37;;;;;;;143.95;14.20;;;15.20;93.40;;;;;;5035460;28;20117;-66
2023/12/29 13:14:04;;;;;;;131.55;13.10;;;;;;;;;;4993303;28;20042;-66
2023/12/29 13:16:38;;;;;;;108.57;12.43;;;15.20;93.40;;;;;;5010707;28;20045;-66
2023/12/29 13:19:23;;;;;;;103.35;10.73;;;15.10;91.80;;;;;;5029269;28;20396;-66
2023/12/29 13:21:54;;;;;;;81.80;10.50;;;15.30;93.50;;;;;;5045448;28;20050;-66